sensor_id;sensor_type;location;lat;lon;timestamp;P1;durP1;ratioP1;P2;durP2;ratioP2
28762;SDS011;15918;51.270;6.522;2023-11-21T00:01:49;19.08;;;13.02;;
28762;SDS011;15918;51.270;6.522;2023-11-21T00:04:15;16.23;;;12.18;;
28762;SDS011;15918;51.270;6.522;2023-11-21T00:06:40;14.45;;;12.30;;
28762;SDS011;15918;51.270;6.522;2023-11-21T00:09:06;16.65;;;12.65;;
28762;SDS011;15918;51.270;6.522;2023-11-21T00:11:33;17.23;;;12.65;;
28762;SDS011;15918;51.270;6.522;2023-11-21T00:13:59;19.45;;;13.07;;
28762;SDS011;15918;51.270;6.522;2023-11-21T00:16:24;15.15;;;12.45;;
28762;SDS011;15918;51.270;6.522;2023-11-21T00:18:50;14.10;;;12.10;;
28762;SDS011;15918;51.270;6.522;2023-11-21T00:21:16;19.05;;;12.05;;
28762;SDS011;15918;51.270;6.522;2023-11-21T00:23:41;18.08;;;12.27;;
28762;SDS011;15918;51.270;6.522;2023-11-21T00:26:07;15.98;;;12.38;;
28762;SDS011;15918;51.270;6.522;2023-11-21T00:28:33;20.40;;;13.13;;
28762;SDS011;15918;51.270;6.522;2023-11-21T00:30:58;18.63;;;12.90;;
28762;SDS011;15918;51.270;6.522;2023-11-21T00:33:24;15.93;;;12.27;;
28762;SDS011;15918;51.270;6.522;2023-11-21T00:35:50;16.05;;;12.80;;
28762;SDS011;15918;51.270;6.522;2023-11-21T00:38:16;17.33;;;13.07;;
28762;SDS011;15918;51.270;6.522;2023-11-21T00:40:44;13.85;;;11.93;;
28762;SDS011;15918;51.270;6.522;2023-11-21T00:43:10;17.42;;;13.35;;
28762;SDS011;15918;51.270;6.522;2023-11-21T00:45:36;14.98;;;11.73;;
28762;SDS011;15918;51.270;6.522;2023-11-21T00:48:01;13.75;;;12.40;;
28762;SDS011;15918;51.270;6.522;2023-11-21T00:50:29;16.60;;;11.75;;
28762;SDS011;15918;51.270;6.522;2023-11-21T00:52:55;15.95;;;12.90;;
28762;SDS011;15918;51.270;6.522;2023-11-21T00:55:21;16.52;;;11.75;;
28762;SDS011;15918;51.270;6.522;2023-11-21T00:57:47;18.60;;;13.15;;
28762;SDS011;15918;51.270;6.522;2023-11-21T01:00:13;16.88;;;12.90;;
28762;SDS011;15918;51.270;6.522;2023-11-21T01:02:42;18.65;;;12.07;;
28762;SDS011;15918;51.270;6.522;2023-11-21T01:05:11;15.15;;;12.07;;
28762;SDS011;15918;51.270;6.522;2023-11-21T01:07:36;14.07;;;12.05;;
28762;SDS011;15918;51.270;6.522;2023-11-21T01:10:03;12.85;;;11.55;;
28762;SDS011;15918;51.270;6.522;2023-11-21T01:12:32;13.25;;;11.38;;
28762;SDS011;15918;51.270;6.522;2023-11-21T01:14:59;16.08;;;12.82;;
28762;SDS011;15918;51.270;6.522;2023-11-21T01:17:25;14.38;;;11.40;;
28762;SDS011;15918;51.270;6.522;2023-11-21T01:19:52;17.05;;;12.05;;
28762;SDS011;15918;51.270;6.522;2023-11-21T01:22:17;13.57;;;11.90;;
28762;SDS011;15918;51.270;6.522;2023-11-21T01:24:47;14.60;;;12.30;;
28762;SDS011;15918;51.270;6.522;2023-11-21T01:27:12;16.42;;;12.07;;
28762;SDS011;15918;51.270;6.522;2023-11-21T01:29:38;15.82;;;11.95;;
28762;SDS011;15918;51.270;6.522;2023-11-21T01:32:04;16.73;;;12.02;;
28762;SDS011;15918;51.270;6.522;2023-11-21T01:34:32;16.95;;;12.50;;
28762;SDS011;15918;51.270;6.522;2023-11-21T01:36:58;16.15;;;12.82;;
28762;SDS011;15918;51.270;6.522;2023-11-21T01:39:24;18.13;;;12.52;;
28762;SDS011;15918;51.270;6.522;2023-11-21T01:41:50;14.32;;;12.55;;
28762;SDS011;15918;51.270;6.522;2023-11-21T01:44:17;15.13;;;12.75;;
28762;SDS011;15918;51.270;6.522;2023-11-21T01:46:44;17.92;;;12.88;;
28762;SDS011;15918;51.270;6.522;2023-11-21T01:49:11;14.82;;;12.30;;
28762;SDS011;15918;51.270;6.522;2023-11-21T01:51:38;17.05;;;12.45;;
28762;SDS011;15918;51.270;6.522;2023-11-21T01:54:05;17.10;;;12.63;;
28762;SDS011;15918;51.270;6.522;2023-11-21T01:56:31;16.35;;;13.10;;
28762;SDS011;15918;51.270;6.522;2023-11-21T01:58:57;16.00;;;13.20;;
28762;SDS011;15918;51.270;6.522;2023-11-21T02:01:23;16.33;;;13.65;;
28762;SDS011;15918;51.270;6.522;2023-11-21T02:03:50;15.70;;;11.88;;
28762;SDS011;15918;51.270;6.522;2023-11-21T02:06:16;14.10;;;12.43;;
28762;SDS011;15918;51.270;6.522;2023-11-21T02:08:43;14.93;;;12.23;;
28762;SDS011;15918;51.270;6.522;2023-11-21T02:11:09;17.08;;;12.23;;
28762;SDS011;15918;51.270;6.522;2023-11-21T02:13:38;15.63;;;12.82;;
28762;SDS011;15918;51.270;6.522;2023-11-21T02:16:08;15.07;;;13.52;;
28762;SDS011;15918;51.270;6.522;2023-11-21T02:18:37;14.02;;;12.50;;
28762;SDS011;15918;51.270;6.522;2023-11-21T02:21:04;16.45;;;14.02;;
28762;SDS011;15918;51.270;6.522;2023-11-21T02:23:30;16.73;;;13.68;;
28762;SDS011;15918;51.270;6.522;2023-11-21T02:25:56;18.55;;;14.07;;
28762;SDS011;15918;51.270;6.522;2023-11-21T02:28:21;16.92;;;14.13;;
28762;SDS011;15918;51.270;6.522;2023-11-21T02:30:51;16.80;;;14.55;;
28762;SDS011;15918;51.270;6.522;2023-11-21T02:33:20;16.73;;;14.98;;
28762;SDS011;15918;51.270;6.522;2023-11-21T02:35:46;17.33;;;15.07;;
28762;SDS011;15918;51.270;6.522;2023-11-21T02:38:12;20.02;;;16.50;;
28762;SDS011;15918;51.270;6.522;2023-11-21T02:40:38;17.65;;;15.75;;
28762;SDS011;15918;51.270;6.522;2023-11-21T02:43:04;17.63;;;15.75;;
28762;SDS011;15918;51.270;6.522;2023-11-21T02:45:30;21.10;;;16.65;;
28762;SDS011;15918;51.270;6.522;2023-11-21T02:47:56;23.08;;;18.13;;
28762;SDS011;15918;51.270;6.522;2023-11-21T02:50:23;18.85;;;16.85;;
28762;SDS011;15918;51.270;6.522;2023-11-21T02:52:48;19.67;;;17.42;;
28762;SDS011;15918;51.270;6.522;2023-11-21T02:55:14;22.13;;;17.67;;
28762;SDS011;15918;51.270;6.522;2023-11-21T02:57:40;22.30;;;18.40;;
28762;SDS011;15918;51.270;6.522;2023-11-21T03:00:06;21.98;;;18.80;;
28762;SDS011;15918;51.270;6.522;2023-11-21T03:02:33;24.15;;;18.85;;
28762;SDS011;15918;51.270;6.522;2023-11-21T03:05:03;25.30;;;18.75;;
28762;SDS011;15918;51.270;6.522;2023-11-21T03:07:30;25.33;;;19.63;;
28762;SDS011;15918;51.270;6.522;2023-11-21T03:09:55;20.48;;;18.08;;
28762;SDS011;15918;51.270;6.522;2023-11-21T03:12:21;23.13;;;19.85;;
28762;SDS011;15918;51.270;6.522;2023-11-21T03:14:46;24.13;;;18.67;;
28762;SDS011;15918;51.270;6.522;2023-11-21T03:17:12;25.85;;;19.88;;
28762;SDS011;15918;51.270;6.522;2023-11-21T03:19:41;24.05;;;19.83;;
28762;SDS011;15918;51.270;6.522;2023-11-21T03:22:07;28.48;;;20.13;;
28762;SDS011;15918;51.270;6.522;2023-11-21T03:24:33;20.42;;;18.33;;
28762;SDS011;15918;51.270;6.522;2023-11-21T03:26:59;23.23;;;19.60;;
28762;SDS011;15918;51.270;6.522;2023-11-21T03:29:24;24.05;;;19.65;;
28762;SDS011;15918;51.270;6.522;2023-11-21T03:31:50;25.00;;;19.48;;
28762;SDS011;15918;51.270;6.522;2023-11-21T03:34:19;25.17;;;20.67;;
28762;SDS011;15918;51.270;6.522;2023-11-21T03:36:52;22.58;;;19.95;;
28762;SDS011;15918;51.270;6.522;2023-11-21T03:39:18;23.83;;;19.80;;
28762;SDS011;15918;51.270;6.522;2023-11-21T03:41:47;25.42;;;20.10;;
28762;SDS011;15918;51.270;6.522;2023-11-21T03:44:13;23.52;;;21.02;;
28762;SDS011;15918;51.270;6.522;2023-11-21T03:46:39;22.88;;;20.13;;
28762;SDS011;15918;51.270;6.522;2023-11-21T03:49:05;26.25;;;19.75;;
28762;SDS011;15918;51.270;6.522;2023-11-21T03:51:32;22.92;;;19.70;;
28762;SDS011;15918;51.270;6.522;2023-11-21T03:53:59;27.10;;;20.38;;
28762;SDS011;15918;51.270;6.522;2023-11-21T03:56:24;26.25;;;21.30;;
28762;SDS011;15918;51.270;6.522;2023-11-21T03:58:50;27.00;;;21.85;;
28762;SDS011;15918;51.270;6.522;2023-11-21T04:01:19;24.38;;;21.40;;
28762;SDS011;15918;51.270;6.522;2023-11-21T04:03:48;24.38;;;21.00;;
28762;SDS011;15918;51.270;6.522;2023-11-21T04:06:14;32.08;;;22.05;;
28762;SDS011;15918;51.270;6.522;2023-11-21T04:08:42;27.88;;;22.00;;
28762;SDS011;15918;51.270;6.522;2023-11-21T04:11:09;28.17;;;22.63;;
28762;SDS011;15918;51.270;6.522;2023-11-21T04:13:37;31.23;;;23.73;;
28762;SDS011;15918;51.270;6.522;2023-11-21T04:16:06;25.63;;;22.42;;
28762;SDS011;15918;51.270;6.522;2023-11-21T04:18:32;30.33;;;23.50;;
28762;SDS011;15918;51.270;6.522;2023-11-21T04:20:58;32.17;;;23.80;;
28762;SDS011;15918;51.270;6.522;2023-11-21T04:23:24;28.75;;;22.92;;
28762;SDS011;15918;51.270;6.522;2023-11-21T04:25:50;33.22;;;23.45;;
28762;SDS011;15918;51.270;6.522;2023-11-21T04:28:15;27.92;;;23.05;;
28762;SDS011;15918;51.270;6.522;2023-11-21T04:30:41;32.10;;;23.33;;
28762;SDS011;15918;51.270;6.522;2023-11-21T04:33:07;33.15;;;24.45;;
28762;SDS011;15918;51.270;6.522;2023-11-21T04:35:32;28.55;;;23.60;;
28762;SDS011;15918;51.270;6.522;2023-11-21T04:37:58;31.65;;;24.85;;
28762;SDS011;15918;51.270;6.522;2023-11-21T04:40:24;35.50;;;26.20;;
28762;SDS011;15918;51.270;6.522;2023-11-21T04:42:52;29.75;;;24.70;;
28762;SDS011;15918;51.270;6.522;2023-11-21T04:45:17;30.73;;;24.90;;
28762;SDS011;15918;51.270;6.522;2023-11-21T04:47:43;30.70;;;24.92;;
28762;SDS011;15918;51.270;6.522;2023-11-21T04:50:08;31.23;;;24.05;;
28762;SDS011;15918;51.270;6.522;2023-11-21T04:52:34;30.80;;;24.73;;
28762;SDS011;15918;51.270;6.522;2023-11-21T04:55:00;35.28;;;25.88;;
28762;SDS011;15918;51.270;6.522;2023-11-21T04:57:27;29.33;;;24.65;;
28762;SDS011;15918;51.270;6.522;2023-11-21T04:59:53;30.00;;;25.00;;
28762;SDS011;15918;51.270;6.522;2023-11-21T05:02:19;27.83;;;24.75;;
28762;SDS011;15918;51.270;6.522;2023-11-21T05:04:46;31.20;;;24.60;;
28762;SDS011;15918;51.270;6.522;2023-11-21T05:07:12;31.48;;;24.75;;
28762;SDS011;15918;51.270;6.522;2023-11-21T05:09:42;30.20;;;24.33;;
28762;SDS011;15918;51.270;6.522;2023-11-21T05:12:10;32.38;;;25.58;;
28762;SDS011;15918;51.270;6.522;2023-11-21T05:14:37;30.02;;;24.30;;
28762;SDS011;15918;51.270;6.522;2023-11-21T05:17:02;30.95;;;25.27;;
28762;SDS011;15918;51.270;6.522;2023-11-21T05:19:29;28.13;;;23.92;;
28762;SDS011;15918;51.270;6.522;2023-11-21T05:21:54;29.95;;;25.27;;
28762;SDS011;15918;51.270;6.522;2023-11-21T05:24:20;29.33;;;26.17;;
28762;SDS011;15918;51.270;6.522;2023-11-21T05:26:46;29.88;;;24.17;;
28762;SDS011;15918;51.270;6.522;2023-11-21T05:29:11;27.42;;;23.73;;
28762;SDS011;15918;51.270;6.522;2023-11-21T05:31:37;26.13;;;22.83;;
28762;SDS011;15918;51.270;6.522;2023-11-21T05:34:03;28.30;;;23.27;;
28762;SDS011;15918;51.270;6.522;2023-11-21T05:36:30;27.55;;;23.42;;
28762;SDS011;15918;51.270;6.522;2023-11-21T05:38:56;27.85;;;24.08;;
28762;SDS011;15918;51.270;6.522;2023-11-21T05:41:21;25.92;;;22.63;;
28762;SDS011;15918;51.270;6.522;2023-11-21T05:43:47;26.33;;;23.30;;
28762;SDS011;15918;51.270;6.522;2023-11-21T05:46:13;32.63;;;24.98;;
28762;SDS011;15918;51.270;6.522;2023-11-21T05:48:38;27.67;;;24.42;;
28762;SDS011;15918;51.270;6.522;2023-11-21T05:51:04;26.10;;;23.00;;
28762;SDS011;15918;51.270;6.522;2023-11-21T05:53:31;31.20;;;25.55;;
28762;SDS011;15918;51.270;6.522;2023-11-21T05:55:56;32.40;;;24.17;;
28762;SDS011;15918;51.270;6.522;2023-11-21T05:58:22;34.33;;;25.52;;
28762;SDS011;15918;51.270;6.522;2023-11-21T06:00:48;32.13;;;25.58;;
28762;SDS011;15918;51.270;6.522;2023-11-21T06:03:14;33.55;;;25.23;;
28762;SDS011;15918;51.270;6.522;2023-11-21T06:05:40;36.17;;;25.67;;
28762;SDS011;15918;51.270;6.522;2023-11-21T06:08:05;31.42;;;26.52;;
28762;SDS011;15918;51.270;6.522;2023-11-21T06:10:32;36.35;;;27.05;;
28762;SDS011;15918;51.270;6.522;2023-11-21T06:12:58;31.27;;;27.38;;
28762;SDS011;15918;51.270;6.522;2023-11-21T06:15:23;37.00;;;28.08;;
28762;SDS011;15918;51.270;6.522;2023-11-21T06:17:49;36.08;;;26.90;;
28762;SDS011;15918;51.270;6.522;2023-11-21T06:20:17;34.42;;;27.50;;
28762;SDS011;15918;51.270;6.522;2023-11-21T06:22:44;35.22;;;27.55;;
28762;SDS011;15918;51.270;6.522;2023-11-21T06:25:12;36.50;;;28.48;;
28762;SDS011;15918;51.270;6.522;2023-11-21T06:27:39;33.95;;;28.55;;
28762;SDS011;15918;51.270;6.522;2023-11-21T06:30:06;36.67;;;27.75;;
28762;SDS011;15918;51.270;6.522;2023-11-21T06:32:34;34.13;;;27.08;;
28762;SDS011;15918;51.270;6.522;2023-11-21T06:35:01;39.53;;;28.58;;
28762;SDS011;15918;51.270;6.522;2023-11-21T06:37:29;32.92;;;27.13;;
28762;SDS011;15918;51.270;6.522;2023-11-21T06:39:56;30.40;;;26.83;;
28762;SDS011;15918;51.270;6.522;2023-11-21T06:42:23;41.60;;;29.98;;
28762;SDS011;15918;51.270;6.522;2023-11-21T06:44:49;36.72;;;28.48;;
28762;SDS011;15918;51.270;6.522;2023-11-21T06:47:16;32.92;;;27.95;;
28762;SDS011;15918;51.270;6.522;2023-11-21T06:49:43;40.33;;;31.38;;
28762;SDS011;15918;51.270;6.522;2023-11-21T06:52:08;39.58;;;31.65;;
28762;SDS011;15918;51.270;6.522;2023-11-21T06:54:34;40.78;;;32.55;;
28762;SDS011;15918;51.270;6.522;2023-11-21T06:57:01;50.45;;;34.42;;
28762;SDS011;15918;51.270;6.522;2023-11-21T06:59:30;47.42;;;37.95;;
28762;SDS011;15918;51.270;6.522;2023-11-21T07:01:57;50.13;;;38.05;;
28762;SDS011;15918;51.270;6.522;2023-11-21T07:04:22;47.60;;;38.70;;
28762;SDS011;15918;51.270;6.522;2023-11-21T07:06:49;51.83;;;39.92;;
28762;SDS011;15918;51.270;6.522;2023-11-21T07:09:14;51.70;;;39.88;;
28762;SDS011;15918;51.270;6.522;2023-11-21T07:11:40;53.83;;;41.45;;
28762;SDS011;15918;51.270;6.522;2023-11-21T07:14:06;54.88;;;43.05;;
28762;SDS011;15918;51.270;6.522;2023-11-21T07:16:35;63.25;;;49.22;;
28762;SDS011;15918;51.270;6.522;2023-11-21T07:19:04;58.22;;;47.17;;
28762;SDS011;15918;51.270;6.522;2023-11-21T07:21:31;62.75;;;48.88;;
28762;SDS011;15918;51.270;6.522;2023-11-21T07:23:58;62.08;;;47.22;;
28762;SDS011;15918;51.270;6.522;2023-11-21T07:26:24;59.88;;;47.28;;
28762;SDS011;15918;51.270;6.522;2023-11-21T07:28:50;59.33;;;45.95;;
28762;SDS011;15918;51.270;6.522;2023-11-21T07:31:16;58.67;;;45.05;;
28762;SDS011;15918;51.270;6.522;2023-11-21T07:33:41;63.08;;;45.95;;
28762;SDS011;15918;51.270;6.522;2023-11-21T07:36:07;57.10;;;44.22;;
28762;SDS011;15918;51.270;6.522;2023-11-21T07:38:33;55.70;;;43.47;;
28762;SDS011;15918;51.270;6.522;2023-11-21T07:40:59;54.28;;;43.70;;
28762;SDS011;15918;51.270;6.522;2023-11-21T07:43:26;60.28;;;43.65;;
28762;SDS011;15918;51.270;6.522;2023-11-21T07:45:52;60.33;;;44.55;;
28762;SDS011;15918;51.270;6.522;2023-11-21T07:48:17;67.93;;;43.88;;
28762;SDS011;15918;51.270;6.522;2023-11-21T07:50:43;60.40;;;45.92;;
28762;SDS011;15918;51.270;6.522;2023-11-21T07:53:08;130.43;;;86.65;;
28762;SDS011;15918;51.270;6.522;2023-11-21T07:55:34;97.68;;;67.65;;
28762;SDS011;15918;51.270;6.522;2023-11-21T07:58:01;94.25;;;63.70;;
28762;SDS011;15918;51.270;6.522;2023-11-21T08:00:26;85.15;;;59.30;;
28762;SDS011;15918;51.270;6.522;2023-11-21T08:02:55;78.57;;;58.00;;
28762;SDS011;15918;51.270;6.522;2023-11-21T08:05:20;82.88;;;57.03;;
28762;SDS011;15918;51.270;6.522;2023-11-21T08:07:46;84.53;;;55.80;;
28762;SDS011;15918;51.270;6.522;2023-11-21T08:10:12;77.35;;;54.17;;
28762;SDS011;15918;51.270;6.522;2023-11-21T08:12:37;84.53;;;63.05;;
28762;SDS011;15918;51.270;6.522;2023-11-21T08:15:03;91.45;;;69.93;;
28762;SDS011;15918;51.270;6.522;2023-11-21T08:17:30;99.88;;;73.90;;
28762;SDS011;15918;51.270;6.522;2023-11-21T08:19:57;91.63;;;68.95;;
28762;SDS011;15918;51.270;6.522;2023-11-21T08:22:23;89.88;;;66.15;;
28762;SDS011;15918;51.270;6.522;2023-11-21T08:24:50;86.07;;;65.22;;
28762;SDS011;15918;51.270;6.522;2023-11-21T08:27:15;80.38;;;61.03;;
28762;SDS011;15918;51.270;6.522;2023-11-21T08:29:41;74.35;;;56.65;;
28762;SDS011;15918;51.270;6.522;2023-11-21T08:32:07;75.00;;;55.33;;
28762;SDS011;15918;51.270;6.522;2023-11-21T08:34:33;67.95;;;52.78;;
28762;SDS011;15918;51.270;6.522;2023-11-21T08:36:58;64.63;;;49.45;;
28762;SDS011;15918;51.270;6.522;2023-11-21T08:39:25;60.47;;;47.70;;
28762;SDS011;15918;51.270;6.522;2023-11-21T08:41:51;62.42;;;47.05;;
28762;SDS011;15918;51.270;6.522;2023-11-21T08:44:17;56.80;;;43.95;;
28762;SDS011;15918;51.270;6.522;2023-11-21T08:46:46;60.45;;;42.83;;
28762;SDS011;15918;51.270;6.522;2023-11-21T08:49:12;55.95;;;44.65;;
28762;SDS011;15918;51.270;6.522;2023-11-21T08:51:38;61.88;;;47.60;;
28762;SDS011;15918;51.270;6.522;2023-11-21T08:54:04;65.10;;;51.13;;
28762;SDS011;15918;51.270;6.522;2023-11-21T08:56:33;64.03;;;50.97;;
28762;SDS011;15918;51.270;6.522;2023-11-21T08:58:59;66.95;;;57.47;;
28762;SDS011;15918;51.270;6.522;2023-11-21T09:01:31;63.05;;;54.28;;
28762;SDS011;15918;51.270;6.522;2023-11-21T09:03:57;59.53;;;50.25;;
28762;SDS011;15918;51.270;6.522;2023-11-21T09:06:23;55.47;;;47.60;;
28762;SDS011;15918;51.270;6.522;2023-11-21T09:08:49;54.70;;;46.75;;
28762;SDS011;15918;51.270;6.522;2023-11-21T09:11:15;55.65;;;45.50;;
28762;SDS011;15918;51.270;6.522;2023-11-21T09:13:42;52.25;;;43.30;;
28762;SDS011;15918;51.270;6.522;2023-11-21T09:16:07;45.63;;;40.58;;
28762;SDS011;15918;51.270;6.522;2023-11-21T09:18:33;48.80;;;40.22;;
28762;SDS011;15918;51.270;6.522;2023-11-21T09:20:59;48.78;;;39.55;;
28762;SDS011;15918;51.270;6.522;2023-11-21T09:23:24;42.53;;;35.92;;
28762;SDS011;15918;51.270;6.522;2023-11-21T09:25:50;43.78;;;36.58;;
28762;SDS011;15918;51.270;6.522;2023-11-21T09:28:17;40.55;;;33.95;;
28762;SDS011;15918;51.270;6.522;2023-11-21T09:30:42;45.05;;;36.05;;
28762;SDS011;15918;51.270;6.522;2023-11-21T09:33:08;42.63;;;33.97;;
28762;SDS011;15918;51.270;6.522;2023-11-21T09:35:37;40.70;;;33.60;;
28762;SDS011;15918;51.270;6.522;2023-11-21T09:38:03;39.55;;;33.47;;
28762;SDS011;15918;51.270;6.522;2023-11-21T09:40:35;41.13;;;31.52;;
28762;SDS011;15918;51.270;6.522;2023-11-21T09:43:00;40.42;;;33.05;;
28762;SDS011;15918;51.270;6.522;2023-11-21T09:45:41;36.72;;;30.88;;
28762;SDS011;15918;51.270;6.522;2023-11-21T09:48:10;37.47;;;31.23;;
28762;SDS011;15918;51.270;6.522;2023-11-21T09:50:36;44.28;;;30.58;;
28762;SDS011;15918;51.270;6.522;2023-11-21T09:53:36;38.53;;;29.75;;
28762;SDS011;15918;51.270;6.522;2023-11-21T09:55:56;37.55;;;30.45;;
28762;SDS011;15918;51.270;6.522;2023-11-21T09:58:22;35.28;;;30.15;;
28762;SDS011;15918;51.270;6.522;2023-11-21T10:00:55;35.20;;;29.38;;
28762;SDS011;15918;51.270;6.522;2023-11-21T10:03:24;39.75;;;30.15;;
28762;SDS011;15918;51.270;6.522;2023-11-21T10:05:50;40.10;;;29.42;;
28762;SDS011;15918;51.270;6.522;2023-11-21T10:08:18;47.25;;;35.17;;
28762;SDS011;15918;51.270;6.522;2023-11-21T10:10:48;46.67;;;32.13;;
28762;SDS011;15918;51.270;6.522;2023-11-21T10:13:18;44.25;;;34.03;;
28762;SDS011;15918;51.270;6.522;2023-11-21T10:15:44;45.20;;;34.78;;
28762;SDS011;15918;51.270;6.522;2023-11-21T10:18:14;48.67;;;35.17;;
28762;SDS011;15918;51.270;6.522;2023-11-21T10:20:40;46.28;;;34.67;;
28762;SDS011;15918;51.270;6.522;2023-11-21T10:23:07;72.97;;;58.05;;
28762;SDS011;15918;51.270;6.522;2023-11-21T10:25:36;60.28;;;42.22;;
28762;SDS011;15918;51.270;6.522;2023-11-21T10:28:03;50.10;;;38.53;;
28762;SDS011;15918;51.270;6.522;2023-11-21T10:30:36;46.90;;;37.10;;
28762;SDS011;15918;51.270;6.522;2023-11-21T10:33:03;46.53;;;35.08;;
28762;SDS011;15918;51.270;6.522;2023-11-21T10:35:48;48.28;;;37.42;;
28762;SDS011;15918;51.270;6.522;2023-11-21T10:38:19;46.30;;;38.47;;
28762;SDS011;15918;51.270;6.522;2023-11-21T10:40:49;44.85;;;35.50;;
28762;SDS011;15918;51.270;6.522;2023-11-21T10:43:15;48.92;;;36.42;;
28762;SDS011;15918;51.270;6.522;2023-11-21T10:45:42;45.03;;;36.30;;
28762;SDS011;15918;51.270;6.522;2023-11-21T10:48:14;44.35;;;33.83;;
28762;SDS011;15918;51.270;6.522;2023-11-21T10:50:40;44.17;;;33.90;;
28762;SDS011;15918;51.270;6.522;2023-11-21T10:53:06;45.55;;;35.38;;
28762;SDS011;15918;51.270;6.522;2023-11-21T10:55:33;46.95;;;36.17;;
28762;SDS011;15918;51.270;6.522;2023-11-21T10:58:01;43.67;;;34.92;;
28762;SDS011;15918;51.270;6.522;2023-11-21T11:00:29;48.33;;;34.70;;
28762;SDS011;15918;51.270;6.522;2023-11-21T11:02:56;41.75;;;33.25;;
28762;SDS011;15918;51.270;6.522;2023-11-21T11:05:23;38.88;;;32.42;;
28762;SDS011;15918;51.270;6.522;2023-11-21T11:07:51;45.53;;;33.72;;
28762;SDS011;15918;51.270;6.522;2023-11-21T11:10:24;37.83;;;31.10;;
28762;SDS011;15918;51.270;6.522;2023-11-21T11:12:52;42.67;;;31.88;;
28762;SDS011;15918;51.270;6.522;2023-11-21T11:15:22;38.78;;;31.15;;
28762;SDS011;15918;51.270;6.522;2023-11-21T11:17:48;33.60;;;28.40;;
28762;SDS011;15918;51.270;6.522;2023-11-21T11:20:15;36.70;;;30.20;;
28762;SDS011;15918;51.270;6.522;2023-11-21T11:23:04;37.22;;;29.77;;
28762;SDS011;15918;51.270;6.522;2023-11-21T11:26:08;34.90;;;28.65;;
28762;SDS011;15918;51.270;6.522;2023-11-21T11:31:54;36.97;;;28.95;;
28762;SDS011;15918;51.270;6.522;2023-11-21T11:37:25;36.38;;;28.33;;
28762;SDS011;15918;51.270;6.522;2023-11-21T11:39:51;33.45;;;29.05;;
28762;SDS011;15918;51.270;6.522;2023-11-21T11:42:17;32.95;;;27.33;;
28762;SDS011;15918;51.270;6.522;2023-11-21T11:47:15;33.88;;;28.75;;
28762;SDS011;15918;51.270;6.522;2023-11-21T11:55:12;34.08;;;27.73;;
28762;SDS011;15918;51.270;6.522;2023-11-21T11:57:40;32.25;;;26.90;;
28762;SDS011;15918;51.270;6.522;2023-11-21T12:02:59;32.58;;;26.38;;
28762;SDS011;15918;51.270;6.522;2023-11-21T12:05:29;35.70;;;26.50;;
28762;SDS011;15918;51.270;6.522;2023-11-21T12:07:58;36.53;;;26.95;;
28762;SDS011;15918;51.270;6.522;2023-11-21T12:10:29;33.72;;;27.77;;
28762;SDS011;15918;51.270;6.522;2023-11-21T12:12:57;36.22;;;28.20;;
28762;SDS011;15918;51.270;6.522;2023-11-21T12:15:24;37.10;;;29.42;;
28762;SDS011;15918;51.270;6.522;2023-11-21T12:17:51;36.83;;;28.42;;
28762;SDS011;15918;51.270;6.522;2023-11-21T12:20:21;39.33;;;29.23;;
28762;SDS011;15918;51.270;6.522;2023-11-21T12:22:51;33.65;;;26.88;;
28762;SDS011;15918;51.270;6.522;2023-11-21T12:25:22;39.35;;;29.10;;
28762;SDS011;15918;51.270;6.522;2023-11-21T12:27:50;36.67;;;27.48;;
28762;SDS011;15918;51.270;6.522;2023-11-21T12:30:26;41.17;;;29.33;;
28762;SDS011;15918;51.270;6.522;2023-11-21T12:32:55;35.65;;;27.13;;
28762;SDS011;15918;51.270;6.522;2023-11-21T12:35:23;36.83;;;28.35;;
28762;SDS011;15918;51.270;6.522;2023-11-21T12:37:51;38.33;;;28.65;;
28762;SDS011;15918;51.270;6.522;2023-11-21T12:40:17;39.63;;;28.02;;
28762;SDS011;15918;51.270;6.522;2023-11-21T12:42:46;38.85;;;28.08;;
28762;SDS011;15918;51.270;6.522;2023-11-21T12:47:45;34.97;;;26.85;;
28762;SDS011;15918;51.270;6.522;2023-11-21T12:50:14;33.63;;;27.25;;
28762;SDS011;15918;51.270;6.522;2023-11-21T12:52:44;36.67;;;27.10;;
28762;SDS011;15918;51.270;6.522;2023-11-21T12:55:14;37.35;;;27.40;;
28762;SDS011;15918;51.270;6.522;2023-11-21T12:57:50;35.55;;;26.95;;
28762;SDS011;15918;51.270;6.522;2023-11-21T13:00:19;40.45;;;27.88;;
28762;SDS011;15918;51.270;6.522;2023-11-21T13:02:58;34.80;;;27.00;;
28762;SDS011;15918;51.270;6.522;2023-11-21T13:05:28;33.42;;;26.33;;
28762;SDS011;15918;51.270;6.522;2023-11-21T13:07:55;38.17;;;27.35;;
28762;SDS011;15918;51.270;6.522;2023-11-21T13:10:23;39.47;;;28.00;;
28762;SDS011;15918;51.270;6.522;2023-11-21T13:12:52;36.28;;;28.02;;
28762;SDS011;15918;51.270;6.522;2023-11-21T13:15:18;39.13;;;28.58;;
28762;SDS011;15918;51.270;6.522;2023-11-21T13:17:44;40.33;;;28.75;;
28762;SDS011;15918;51.270;6.522;2023-11-21T13:20:11;42.38;;;29.08;;
28762;SDS011;15918;51.270;6.522;2023-11-21T13:22:52;41.72;;;28.98;;
28762;SDS011;15918;51.270;6.522;2023-11-21T13:25:20;45.45;;;28.63;;
28762;SDS011;15918;51.270;6.522;2023-11-21T13:27:46;41.35;;;29.35;;
28762;SDS011;15918;51.270;6.522;2023-11-21T13:30:13;42.60;;;30.20;;
28762;SDS011;15918;51.270;6.522;2023-11-21T13:32:41;39.75;;;29.17;;
28762;SDS011;15918;51.270;6.522;2023-11-21T13:35:07;43.08;;;30.90;;
28762;SDS011;15918;51.270;6.522;2023-11-21T13:37:39;40.65;;;29.42;;
28762;SDS011;15918;51.270;6.522;2023-11-21T13:40:05;45.13;;;30.25;;
28762;SDS011;15918;51.270;6.522;2023-11-21T13:42:40;37.33;;;28.33;;
28762;SDS011;15918;51.270;6.522;2023-11-21T13:45:06;43.00;;;29.17;;
28762;SDS011;15918;51.270;6.522;2023-11-21T13:47:32;43.55;;;29.48;;
28762;SDS011;15918;51.270;6.522;2023-11-21T13:49:59;44.13;;;30.10;;
28762;SDS011;15918;51.270;6.522;2023-11-21T13:52:25;41.17;;;28.50;;
28762;SDS011;15918;51.270;6.522;2023-11-21T13:54:52;42.25;;;29.45;;
28762;SDS011;15918;51.270;6.522;2023-11-21T13:57:18;36.45;;;28.13;;
28762;SDS011;15918;51.270;6.522;2023-11-21T13:59:45;34.35;;;27.23;;
28762;SDS011;15918;51.270;6.522;2023-11-21T14:02:11;37.25;;;26.83;;
28762;SDS011;15918;51.270;6.522;2023-11-21T14:04:43;40.58;;;28.48;;
28762;SDS011;15918;51.270;6.522;2023-11-21T14:07:20;39.13;;;28.95;;
28762;SDS011;15918;51.270;6.522;2023-11-21T14:09:56;40.33;;;28.88;;
28762;SDS011;15918;51.270;6.522;2023-11-21T14:12:23;33.35;;;28.33;;
28762;SDS011;15918;51.270;6.522;2023-11-21T14:14:49;35.42;;;27.98;;
28762;SDS011;15918;51.270;6.522;2023-11-21T14:17:15;37.25;;;27.95;;
28762;SDS011;15918;51.270;6.522;2023-11-21T14:19:40;37.80;;;28.98;;
28762;SDS011;15918;51.270;6.522;2023-11-21T14:22:09;35.92;;;27.77;;
28762;SDS011;15918;51.270;6.522;2023-11-21T14:24:35;37.55;;;27.08;;
28762;SDS011;15918;51.270;6.522;2023-11-21T14:27:01;37.80;;;28.13;;
28762;SDS011;15918;51.270;6.522;2023-11-21T14:29:28;38.35;;;28.15;;
28762;SDS011;15918;51.270;6.522;2023-11-21T14:31:55;34.90;;;27.23;;
28762;SDS011;15918;51.270;6.522;2023-11-21T14:34:23;40.40;;;30.27;;
28762;SDS011;15918;51.270;6.522;2023-11-21T14:36:49;39.50;;;29.27;;
28762;SDS011;15918;51.270;6.522;2023-11-21T14:39:15;36.70;;;28.52;;
28762;SDS011;15918;51.270;6.522;2023-11-21T14:42:04;32.95;;;27.30;;